createdAt,value
2022-08-29T00:02:58.192Z,18.65
2022-08-29T00:13:05.270Z,18.62
2022-08-29T00:23:11.535Z,18.58
2022-08-29T00:33:17.382Z,18.46
2022-08-29T00:43:26.274Z,18.33
2022-08-29T00:53:38.207Z,18.26
2022-08-29T01:03:44.271Z,18.24
2022-08-29T01:13:52.255Z,18.24
2022-08-29T01:24:05.601Z,18.22
2022-08-29T01:34:12.812Z,18.11
2022-08-29T01:44:20.552Z,18.04
2022-08-29T01:54:26.188Z,18.02
2022-08-29T02:04:32.402Z,17.98
2022-08-29T02:14:38.814Z,17.92
2022-08-29T02:24:45.396Z,17.84
2022-08-29T02:34:51.176Z,17.79
2022-08-29T02:44:56.824Z,17.73
2022-08-29T02:55:02.786Z,17.70
2022-08-29T03:05:10.208Z,17.64
2022-08-29T03:15:16.514Z,17.55
2022-08-29T03:25:23.016Z,17.49
2022-08-29T03:35:28.926Z,17.46
2022-08-29T03:45:35.060Z,17.41
2022-08-29T03:55:41.140Z,17.42
2022-08-29T04:05:46.926Z,17.40
2022-08-29T04:15:57.050Z,17.36
2022-08-29T04:26:27.159Z,17.28
2022-08-29T04:36:29.365Z,17.09
2022-08-29T04:46:35.668Z,17.01
2022-08-29T04:56:44.335Z,17.05
2022-08-29T05:06:53.470Z,17.23
2022-08-29T05:16:59.209Z,17.26
2022-08-29T05:27:10.926Z,18.24
2022-08-29T05:37:19.390Z,24.52
2022-08-29T05:47:25.550Z,29.56
2022-08-29T05:57:31.254Z,32.35
2022-08-29T06:07:37.113Z,34.15
2022-08-29T06:17:42.980Z,34.02
2022-08-29T06:27:48.804Z,35.97
2022-08-29T06:37:54.579Z,35.07
2022-08-29T06:48:00.276Z,36.04
2022-08-29T06:58:06.301Z,38.43
2022-08-29T07:08:12.011Z,38.67
2022-08-29T07:18:17.756Z,40.21
2022-08-29T07:28:23.406Z,41.90
2022-08-29T07:38:30.956Z,41.51
2022-08-29T07:48:36.810Z,41.11
2022-08-29T07:58:43.588Z,41.40
2022-08-29T08:08:49.792Z,41.17
2022-08-29T08:18:56.519Z,41.92
2022-08-29T08:29:02.216Z,42.49
2022-08-29T08:39:08.137Z,36.64
2022-08-29T08:49:20.194Z,30.20
2022-08-29T08:59:34.747Z,27.54
2022-08-29T09:09:56.984Z,26.75
2022-08-29T09:20:04.025Z,25.66
2022-08-29T09:30:10.945Z,26.09
2022-08-29T09:40:19.344Z,25.45
2022-08-29T09:50:28.554Z,24.42
2022-08-29T10:00:38.087Z,23.44
2022-08-29T10:10:54.684Z,23.60
2022-08-29T10:21:20.429Z,23.44
2022-08-29T10:31:34.429Z,23.15
2022-08-29T10:41:51.043Z,23.17
2022-08-29T10:52:11.551Z,23.05
2022-08-29T11:02:28.239Z,22.96
2022-08-29T11:12:45.391Z,22.95
2022-08-29T11:22:55.621Z,22.64
2022-08-29T11:33:15.073Z,22.77
2022-08-29T11:43:26.032Z,22.62
2022-08-29T11:53:37.634Z,22.65
2022-08-29T12:03:47.817Z,22.39
2022-08-29T12:14:06.282Z,22.17
2022-08-29T12:24:31.575Z,22.35
2022-08-29T12:34:50.928Z,22.46
2022-08-29T12:45:05.215Z,23.02
2022-08-29T12:55:28.770Z,23.16
2022-08-29T13:05:38.339Z,23.03
2022-08-29T13:15:45.092Z,23.04
2022-08-29T13:25:54.496Z,22.45
2022-08-29T13:36:00.183Z,22.48
2022-08-29T13:46:15.479Z,22.60
2022-08-29T13:56:32.274Z,22.97
2022-08-29T14:06:38.552Z,22.94
2022-08-29T14:16:44.338Z,22.64
2022-08-29T14:26:54.090Z,22.11
2022-08-29T14:37:07.698Z,22.32
2022-08-29T14:47:13.711Z,22.70
2022-08-29T14:57:19.668Z,22.95
2022-08-29T15:07:25.570Z,22.70
2022-08-29T15:17:31.322Z,22.56
2022-08-29T15:27:37.280Z,22.64
2022-08-29T15:37:43.815Z,22.68
2022-08-29T15:47:49.627Z,22.88
2022-08-29T15:57:55.417Z,22.98
2022-08-29T16:08:01.405Z,22.76
2022-08-29T16:18:07.948Z,22.22
2022-08-29T16:28:13.637Z,21.92
2022-08-29T16:38:19.664Z,21.52
2022-08-29T16:48:25.707Z,21.13
2022-08-29T16:58:50.962Z,20.56
2022-08-29T17:08:55.982Z,20.18
2022-08-29T17:19:02.132Z,19.86
2022-08-29T17:29:09.575Z,19.46
2022-08-29T17:39:15.744Z,19.12
2022-08-29T17:49:21.834Z,18.75
2022-08-29T17:59:33.800Z,18.41
2022-08-29T18:09:39.695Z,18.10
2022-08-29T18:19:45.606Z,17.82
2022-08-29T18:29:51.776Z,17.54
2022-08-29T18:39:57.640Z,17.26
2022-08-29T18:50:25.147Z,16.96
2022-08-29T19:00:31.362Z,16.65
2022-08-29T19:10:37.591Z,16.35
2022-08-29T19:21:01.609Z,16.08
2022-08-29T19:31:08.129Z,15.84
2022-08-29T19:41:15.536Z,15.65
2022-08-29T19:51:24.451Z,15.47
2022-08-29T20:01:31.569Z,15.30
2022-08-29T20:11:43.765Z,15.14
2022-08-29T20:21:50.671Z,15.02
2022-08-29T20:31:56.524Z,14.86
2022-08-29T20:42:02.921Z,14.69
2022-08-29T20:52:09.008Z,14.53
2022-08-29T21:02:16.540Z,14.39
2022-08-29T21:12:27.452Z,14.29
2022-08-29T21:22:33.779Z,14.21
2022-08-29T21:32:39.756Z,14.19
2022-08-29T21:42:45.707Z,14.18
2022-08-29T21:52:51.683Z,14.15
2022-08-29T22:02:57.527Z,14.13
2022-08-29T22:13:06.298Z,14.12
2022-08-29T22:23:12.859Z,14.07
2022-08-29T22:33:21.124Z,13.97
2022-08-29T22:43:28.574Z,13.90
2022-08-29T22:53:34.960Z,13.81
2022-08-29T23:03:40.899Z,13.70
2022-08-29T23:13:47.682Z,13.61
2022-08-29T23:23:56.060Z,13.52
2022-08-29T23:34:01.739Z,13.47
2022-08-29T23:44:08.039Z,13.37
2022-08-29T23:54:13.737Z,13.28
